Portada
METAR-TAF:

METAR-TAF

Aeroports :

Djibouti, Djibouti

latitud: 11-33N, longitud: 043-10E, altitud: 49 m

Observació

L'informe es va fer fa 11 hores i 21 minuts, a les 16:00 UTC
Vent 4 kt del Est
Temperatura 33°C
Humitat 59%
Pressió 1002 hPa
Visibilitat: 8000 m
Cel clar
calitja

METAR: HDAM 261600Z 10004KT 8000 HZ SKC 33/24 Q1002

Hora: 06:21 (03:21 UTC)

Pronòstic

L'informe es va fer fa 4 hores i 21 minuts, a les 23:00 UTC
Pronòstic vàlid del 27 a les 00 UTC al 27 a les 24 UTC
Vent 3 kt amb direcció variable
Visibilitat 10 km o més
Núvols disperses a una alçada de 2000 ft
Evolucionant progressivament
l' 27 a les 06 UTC al 27 a les 12 UTC
Vent 10 kt del Est
Escasses núvols a una alçada de 2300 ft

TAF: HDAM 262300Z 2700/2724 VRB03KT 9999 SCT020 BECMG 2706/2712 08010KT FEW023

Observacions i pronòstics meteorològics de més de 4000 aeroports (METAR i TAF).

Les estacions disponibles són els punts grocs i vermells al mapa.

Posi el ratolí al punt desitjat per veure el nom de l'estació.

Feu clic per veure les observacions i els pronòstics meteorològics.

Per canviar el mapa: feu clic els botons verds amb una creu de color negre per apropar; al botó verd amb un guió per allunyar la imatge; o en les fletxes verdes per a mapes adjacents.


METAR-TAF: